»·PEaware :: N85KM KBFL-KMHV

N85KM :: KBFL-KMHV

FLIGHT INFORMATION

Flight Status: Arrived
Operator: Privately registered:
United States
More flights under this callsign
Pilot: Mike M. (16771)
Aircraft: CESSNA 172 SKYHAWK
(C172)
More flights by this aircraft type
Origin: KBFL Meadows
United States
Destination: KMHV Mojave
United States
More flights between these airports :: More routes between these airports
Route: DIRECT
File this flight plan on PilotEdge
Remarks: cat6
Altitude:
(Current/Filed)
7,500ft
Speed:
(Current/Filed)
105kts
Departed: 03-Oct-17 01:18 PM
Arrived: 03-Oct-17 01:49 PM
Distance/Time
Traveled:
50nm/0:31
Distance/Time
To Go:
Arrived

Flight Plot

Page will automatically refresh every two minutes.


Map Options




Map Legend


Flown Route
Filed Route
Departure Airport
Arrival Airport
Navaid (VOR, NDB)
Fix

Horizontal Profiles

Position Reports

Time Latitude Longitude Heading Altitude Ground
Speed
03-Oct-17 12:51 35.429365 -119.046108 226 497ft 0kts
03-Oct-17 12:52 35.429365 -119.046108 226 497ft 0kts
03-Oct-17 12:53 35.429365 -119.046108 226 497ft 0kts
03-Oct-17 12:54 35.429365 -119.046108 226 497ft 0kts
03-Oct-17 12:55 35.429365 -119.046108 226 497ft 0kts
03-Oct-17 12:56 35.429365 -119.046108 226 497ft 0kts
03-Oct-17 12:57 35.429365 -119.046108 226 497ft 0kts
03-Oct-17 12:58 35.429365 -119.046108 226 497ft 0kts
03-Oct-17 12:59 35.429365 -119.046108 226 497ft 0kts
03-Oct-17 13:00 35.429365 -119.046108 226 497ft 0kts
03-Oct-17 13:01 35.429365 -119.046108 226 497ft 0kts
03-Oct-17 13:02 35.429365 -119.046108 226 497ft 0kts
03-Oct-17 13:03 35.429365 -119.046108 226 497ft 0kts
03-Oct-17 13:04 35.429365 -119.046108 226 497ft 0kts
03-Oct-17 13:05 35.429365 -119.046108 226 497ft 0kts
03-Oct-17 13:06 35.429365 -119.046108 226 497ft 0kts
03-Oct-17 13:07 35.429365 -119.046108 226 497ft 0kts
03-Oct-17 13:08 35.429365 -119.046108 226 497ft 0kts
03-Oct-17 13:09 35.429365 -119.046108 226 497ft 0kts
03-Oct-17 13:10 35.429365 -119.046108 226 497ft 0kts
03-Oct-17 13:11 35.428462 -119.047164 196 497ft 4kts
03-Oct-17 13:12 35.426113 -119.044508 132 497ft 11kts
03-Oct-17 13:13 35.425525 -119.044707 241 497ft 0kts
03-Oct-17 13:14 35.425525 -119.044707 242 497ft 0kts
03-Oct-17 13:15 35.425525 -119.044707 242 497ft 0kts
03-Oct-17 13:16 35.425525 -119.044707 242 497ft 0kts
03-Oct-17 13:17 35.425525 -119.044707 242 497ft 0kts
03-Oct-17 13:18 35.425525 -119.044707 242 497ft 0kts
03-Oct-17 13:19 35.425525 -119.044707 242 497ft 0kts
03-Oct-17 13:20 35.425525 -119.044707 242 497ft 0kts
03-Oct-17 13:21 35.425474 -119.044866 259 497ft 3kts
03-Oct-17 13:22 35.427636 -119.048680 313 497ft 65kts
03-Oct-17 13:23 35.442030 -119.062630 3 1362ft 73kts
03-Oct-17 13:24 35.453848 -119.042855 109 2202ft 84kts
03-Oct-17 13:25 35.438640 -119.021024 144 3017ft 85kts
03-Oct-17 13:26 35.419661 -119.003819 119 3763ft 94kts
03-Oct-17 13:27 35.407324 -118.973610 118 4386ft 102kts
03-Oct-17 13:28 35.394638 -118.941789 118 4989ft 105kts
03-Oct-17 13:29 35.382010 -118.909344 118 5590ft 106kts
03-Oct-17 13:30 35.369334 -118.876876 123 6189ft 105kts
03-Oct-17 13:31 35.355016 -118.845057 123 6693ft 110kts
03-Oct-17 13:32 35.340108 -118.811782 123 7101ft 112kts
03-Oct-17 13:33 35.325191 -118.778150 123 7502ft 112kts
03-Oct-17 13:34 35.308385 -118.740873 123 7497ft 128kts
03-Oct-17 13:35 35.291707 -118.701905 120 7509ft 129kts
03-Oct-17 13:36 35.275740 -118.662891 120 7522ft 130kts
03-Oct-17 13:37 35.259261 -118.623059 120 7534ft 131kts
03-Oct-17 13:38 35.242517 -118.583071 120 7546ft 132kts
03-Oct-17 13:39 35.225338 -118.542585 120 7509ft 134kts
03-Oct-17 13:40 35.208283 -118.502487 120 7509ft 132kts
03-Oct-17 13:41 35.191341 -118.462643 120 7510ft 132kts
03-Oct-17 13:42 35.174100 -118.422316 120 7469ft 129kts
03-Oct-17 13:43 35.157728 -118.383661 120 7538ft 131kts
03-Oct-17 13:44 35.141453 -118.345330 120 7462ft 136kts
03-Oct-17 13:45 35.123505 -118.304271 120 6468ft 136kts
03-Oct-17 13:46 35.105585 -118.263824 124 5397ft 135kts
03-Oct-17 13:47 35.089025 -118.225440 120 4561ft 126kts
03-Oct-17 13:48 35.077144 -118.191687 121 4001ft 106kts
03-Oct-17 13:49 35.073500 -118.158630 84 3791ft 103kts
03-Oct-17 13:50 35.078809 -118.126764 113 3970ft 83kts
03-Oct-17 13:51 35.064557 -118.119973 213 3548ft 51kts
03-Oct-17 13:52 35.059259 -118.133957 258 2995ft 47kts
03-Oct-17 13:53 35.059145 -118.146858 267 2760ft 17kts
03-Oct-17 13:54 35.058872 -118.150318 135 2760ft 6kts
03-Oct-17 13:55 35.058854 -118.150297 134 2760ft 0kts
03-Oct-17 13:56 35.058664 -118.150085 130 2760ft 0kts
03-Oct-17 13:57 35.057568 -118.150815 267 2760ft 6kts
03-Oct-17 13:58 35.056919 -118.152019 185 2760ft 0kts

Navigation Log

Ident Type
1. KBFL Airport
2. KMHV Airport